This is the latest recevied weather packets stored in our database for station/object HB9EYW-6. If no packets are shown the sender has not sent any weather packets the latest 10 day(s).
| Time | Temp. | Humidity | Pressure | Rain* | Wind** | Luminosity | Snow |
|---|---|---|---|---|---|---|---|
| 1778070305 | 12.22° C | 87% | 0 hPa | 4.32 mm | - | - | - |
| 1778070005 | 12.22° C | 86% | 0 hPa | 4.57 mm | - | - | - |
| 1778069705 | 12.22° C | 86% | 0 hPa | 4.32 mm | - | - | - |
| 1778069405 | 11.67° C | 85% | 0 hPa | 4.57 mm | - | - | - |
| 1778069105 | 11.67° C | 83% | 0 hPa | 4.57 mm | - | - | - |
| 1778068805 | 11.67° C | 83% | 0 hPa | 4.57 mm | - | - | - |
| 1778068505 | 11.67° C | 83% | 0 hPa | 4.57 mm | - | - | - |
| 1778068205 | 11.67° C | 82% | 0 hPa | 4.83 mm | - | - | - |
| 1778067905 | 12.78° C | 81% | 0 hPa | 4.57 mm | - | - | - |
| 1778067605 | 12.22° C | 79% | 0 hPa | 4.83 mm | - | - | - |
| 1778067305 | 12.78° C | 79% | 0 hPa | 3.81 mm | - | - | - |
| 1778067005 | 13.33° C | 79% | 0 hPa | 2.03 mm | - | - | - |
| 1778066768 | 13.33° C | 78% | 0 hPa | 1.78 mm | - | - | - |
| 1778066405 | 13.33° C | 77% | 0 hPa | 1.52 mm | - | - | - |
| 1778066105 | 13.33° C | 76% | 0 hPa | 1.78 mm | - | - | - |
| 1778065805 | 13.33° C | 75% | 0 hPa | 1.52 mm | - | - | - |
| 1778065505 | 13.89° C | 74% | 0 hPa | 1.27 mm | - | - | - |
| 1778065205 | 13.89° C | 74% | 0 hPa | 1.27 mm | - | - | - |
| 1778064905 | 13.89° C | 73% | 0 hPa | 1.27 mm | - | - | - |
| 1778064605 | 13.89° C | 73% | 0 hPa | 1.02 mm | - | - | - |
| 1778064305 | 13.89° C | 72% | 0 hPa | 1.02 mm | - | - | - |
| 1778064005 | 13.89° C | 72% | 0 hPa | 0.51 mm | - | - | - |
| 1778063705 | 13.89° C | 71% | 0 hPa | 0.51 mm | - | - | - |
| 1778063405 | 13.89° C | 70% | 0 hPa | 0.51 mm | - | - | - |
| 1778063105 | 13.89° C | 69% | 0 hPa | 0.25 mm | - | - | - |
* Rain latest hour (hover to see other rain measurements)
** Current wind speed in m/s (hover to see current wind gust speed)